Time;durP1;ratioP1;P1;durP2;ratioP2;P2;SDS_P1;SDS_P2;PMS_P1;PMS_P2;Temp;Humidity;BMP_temperature;BMP_pressure;BME280_temperature;BME280_humidity;BME280_pressure;Samples;Min_cycle;Max_cycle;Signal;HPM_P1;HPM_P2
2022/07/18 00:10:17;;;;;;;2.1;4.6;;;;;;;10.8;100;99490;;;;
2022/07/18 00:21:17;;;;;;;2.1;4.6;;;;;;;10.6;100;99490;;;;
2022/07/18 00:32:17;;;;;;;2.1;4.6;;;;;;;10.4;100;99490;;;;
2022/07/18 00:43:17;;;;;;;1.9;4.1;;;;;;;10.4;100;99500;;;;
2022/07/18 00:54:17;;;;;;;1.9;4.1;;;;;;;10.3;100;99500;;;;
2022/07/18 01:05:17;;;;;;;1.9;4.1;;;;;;;10.3;100;99490;;;;
2022/07/18 01:15:17;;;;;;;2;4.7;;;;;;;10.2;100;99480;;;;
2022/07/18 01:25:17;;;;;;;2;4.7;;;;;;;10.1;100;99470;;;;
2022/07/18 01:36:17;;;;;;;2.1;4.5;;;;;;;10;100;99470;;;;
2022/07/18 01:46:17;;;;;;;2.1;4.5;;;;;;;10;100;99460;;;;
2022/07/18 01:56:17;;;;;;;2.1;4.5;;;;;;;9.8;100;99460;;;;
2022/07/18 02:07:17;;;;;;;1.7;4.5;;;;;;;9.7;100;99460;;;;
2022/07/18 02:17:17;;;;;;;1.7;4.5;;;;;;;9.4;100;99460;;;;
2022/07/18 02:28:17;;;;;;;1.7;4.5;;;;;;;9.4;100;99450;;;;
2022/07/18 02:38:17;;;;;;;2.2;5.1;;;;;;;9.2;100;99460;;;;
2022/07/18 02:49:26;;;;;;;2.2;5.1;;;;;;;9.2;100;99460;;;;
2022/07/18 02:59:17;;;;;;;2.2;5.1;;;;;;;9.1;100;99470;;;;
2022/07/18 03:09:18;;;;;;;1.9;4.4;;;;;;;9.3;100;99470;;;;
2022/07/18 03:20:17;;;;;;;1.9;4.4;;;;;;;9.5;100;99480;;;;
2022/07/18 03:30:17;;;;;;;1.9;4.4;;;;;;;9.8;100;99490;;;;
2022/07/18 03:41:17;;;;;;;2.9;5.7;;;;;;;9.9;100;99490;;;;
2022/07/18 03:52:17;;;;;;;2.9;5.7;;;;;;;10.1;100;99490;;;;
2022/07/18 04:03:17;;;;;;;2.9;5.7;;;;;;;10.4;100;99510;;;;
2022/07/18 04:13:17;;;;;;;2.5;5.2;;;;;;;10.6;100;99520;;;;
2022/07/18 04:23:18;;;;;;;2.5;5.2;;;;;;;11.1;100;99520;;;;
2022/07/18 04:33:17;;;;;;;2.5;5.2;;;;;;;11.4;100;99520;;;;
2022/07/18 04:43:17;;;;;;;2.7;6.1;;;;;;;11.7;100;99530;;;;
2022/07/18 04:53:17;;;;;;;2.7;6.1;;;;;;;12.4;100;99540;;;;
2022/07/18 05:03:17;;;;;;;2.7;6.1;;;;;;;13;100;99530;;;;
2022/07/18 05:14:17;;;;;;;2.7;4.8;;;;;;;13.6;100;99540;;;;
2022/07/18 05:25:17;;;;;;;2.7;4.8;;;;;;;13.8;100;99530;;;;
2022/07/18 05:35:17;;;;;;;2.9;5.3;;;;;;;14.2;100;99510;;;;
2022/07/18 05:46:17;;;;;;;2.9;5.3;;;;;;;14.7;100;99510;;;;
2022/07/18 05:57:17;;;;;;;2.9;5.3;;;;;;;15.1;100;99510;;;;
2022/07/18 06:07:17;;;;;;;1.8;6.3;;;;;;;15.4;100;99520;;;;
2022/07/18 06:18:17;;;;;;;1.8;6.3;;;;;;;16;100;99510;;;;
2022/07/18 06:29:17;;;;;;;1.8;6.3;;;;;;;16.7;100;99520;;;;
2022/07/18 06:40:17;;;;;;;3.2;5.9;;;;;;;17.1;100;99520;;;;
2022/07/18 06:51:17;;;;;;;3.2;5.9;;;;;;;17.6;100;99520;;;;
2022/07/18 07:02:17;;;;;;;3.2;5.9;;;;;;;17.9;100;99510;;;;
2022/07/18 07:12:17;;;;;;;3.5;7.3;;;;;;;18.3;100;99520;;;;
2022/07/18 07:22:17;;;;;;;3.5;7.3;;;;;;;18.8;100;99510;;;;
2022/07/18 07:33:17;;;;;;;3.5;7.3;;;;;;;19.2;100;99510;;;;
2022/07/18 07:44:17;;;;;;;2.6;5.9;;;;;;;19.5;100;99530;;;;
2022/07/18 07:54:17;;;;;;;2.6;5.9;;;;;;;19.7;100;99530;;;;
2022/07/18 08:05:17;;;;;;;2.2;5.8;;;;;;;20.1;100;99530;;;;
2022/07/18 08:15:17;;;;;;;2.2;5.8;;;;;;;20.2;96.9;99520;;;;
2022/07/18 08:26:17;;;;;;;2.2;5.8;;;;;;;20.6;94.1;99520;;;;
2022/07/18 08:36:17;;;;;;;2.1;5.4;;;;;;;20.7;96.5;99510;;;;
2022/07/18 08:46:17;;;;;;;2.1;5.4;;;;;;;21;90;99500;;;;
2022/07/18 08:56:17;;;;;;;2.1;5.4;;;;;;;21.2;87.2;99500;;;;
2022/07/18 09:06:17;;;;;;;1.7;5.8;;;;;;;21.5;88.7;99500;;;;
2022/07/18 09:17:17;;;;;;;1.7;5.8;;;;;;;21.5;79.4;99500;;;;
2022/07/18 09:28:18;;;;;;;1.7;5.8;;;;;;;22.1;88.3;99500;;;;
2022/07/18 09:39:17;;;;;;;2.1;6.7;;;;;;;22.2;80.5;99510;;;;
2022/07/18 09:50:17;;;;;;;2.1;6.7;;;;;;;22.1;80.8;99500;;;;
2022/07/18 10:01:17;;;;;;;2.1;6.7;;;;;;;22.4;80.4;99500;;;;
2022/07/18 10:11:17;;;;;;;1.5;5;;;;;;;22.4;73.2;99490;;;;
2022/07/18 10:22:17;;;;;;;1.5;5;;;;;;;22.8;72;99480;;;;
2022/07/18 10:33:17;;;;;;;1.5;5;;;;;;;22.9;70.4;99480;;;;
2022/07/18 10:44:17;;;;;;;1.7;5.1;;;;;;;23;69.8;99480;;;;
2022/07/18 10:54:17;;;;;;;1.7;5.1;;;;;;;23.1;69.2;99470;;;;
2022/07/18 11:04:17;;;;;;;1.7;5.1;;;;;;;23.2;67.5;99470;;;;
2022/07/18 11:15:17;;;;;;;2;5.5;;;;;;;23.5;70.4;99450;;;;
2022/07/18 11:25:17;;;;;;;2;5.5;;;;;;;23.6;72.3;99450;;;;
2022/07/18 11:35:17;;;;;;;1.7;3.9;;;;;;;23.6;69.5;99440;;;;
2022/07/18 11:46:17;;;;;;;1.7;3.9;;;;;;;23.9;68.1;99430;;;;
2022/07/18 11:57:17;;;;;;;1.7;3.9;;;;;;;24;66.5;99430;;;;
2022/07/18 12:08:17;;;;;;;2.3;5.1;;;;;;;24.5;70.1;99420;;;;
2022/07/18 12:18:17;;;;;;;2.3;5.1;;;;;;;24.5;67.3;99410;;;;
2022/07/18 12:29:17;;;;;;;2.3;5.1;;;;;;;24.7;71.3;99410;;;;
2022/07/18 12:39:17;;;;;;;1.6;4.2;;;;;;;24.8;68.9;99390;;;;
2022/07/18 12:49:17;;;;;;;1.6;4.2;;;;;;;24.8;73;99390;;;;
2022/07/18 13:00:17;;;;;;;1.6;4.2;;;;;;;25.3;70.8;99380;;;;
2022/07/18 13:11:17;;;;;;;1.8;5;;;;;;;25.4;65;99370;;;;
2022/07/18 13:21:18;;;;;;;1.8;5;;;;;;;25.3;66.6;99360;;;;
2022/07/18 13:31:17;;;;;;;1.8;5;;;;;;;26.4;68.5;99350;;;;
2022/07/18 13:41:17;;;;;;;1.9;7.4;;;;;;;26.7;60.6;99360;;;;
2022/07/18 13:52:17;;;;;;;1.9;7.4;;;;;;;27.2;63.6;99350;;;;
2022/07/18 14:03:17;;;;;;;1.9;7.4;;;;;;;27;58.1;99340;;;;
2022/07/18 14:13:17;;;;;;;2;4.6;;;;;;;27.2;59.9;99340;;;;
2022/07/18 14:23:17;;;;;;;2;4.6;;;;;;;27.2;63.3;99330;;;;
2022/07/18 14:33:17;;;;;;;2;4.6;;;;;;;27.6;58.4;99320;;;;
2022/07/18 14:43:17;;;;;;;2.1;5.2;;;;;;;27.9;54.8;99320;;;;
2022/07/18 14:53:17;;;;;;;2.1;5.2;;;;;;;27.4;59.2;99310;;;;
2022/07/18 15:04:17;;;;;;;2.1;5.2;;;;;;;27.7;58.3;99300;;;;
2022/07/18 15:14:17;;;;;;;1.8;5.9;;;;;;;28;58.1;99310;;;;
2022/07/18 15:25:17;;;;;;;1.8;5.9;;;;;;;28.4;57.3;99300;;;;
2022/07/18 15:36:17;;;;;;;1.5;3;;;;;;;30.6;52.9;99290;;;;
2022/07/18 15:46:18;;;;;;;1.5;3;;;;;;;32.1;45.8;99290;;;;
2022/07/18 15:56:17;;;;;;;1.5;3;;;;;;;33.2;44.7;99290;;;;
2022/07/18 16:07:17;;;;;;;1.8;4.5;;;;;;;33.7;41.9;99290;;;;
2022/07/18 16:17:17;;;;;;;1.8;4.5;;;;;;;34.9;40.5;99280;;;;
2022/07/18 16:27:17;;;;;;;1.8;4.5;;;;;;;35.1;38.2;99280;;;;
2022/07/18 16:37:17;;;;;;;2;5.1;;;;;;;33.4;42.6;99270;;;;
2022/07/18 16:48:17;;;;;;;2;5.1;;;;;;;32.4;41.9;99260;;;;
2022/07/18 16:59:18;;;;;;;2;5.1;;;;;;;33.5;41.1;99260;;;;
2022/07/18 17:09:17;;;;;;;1.9;5.8;;;;;;;35.6;38.4;99260;;;;
2022/07/18 17:20:17;;;;;;;1.9;5.8;;;;;;;32.1;41.8;99240;;;;
2022/07/18 17:30:17;;;;;;;1.9;5.8;;;;;;;29.6;45.9;99240;;;;
2022/07/18 17:41:17;;;;;;;2.1;5;;;;;;;27.9;52.7;99230;;;;
2022/07/18 17:52:17;;;;;;;2.1;5;;;;;;;28.3;61.7;99230;;;;
2022/07/18 18:03:17;;;;;;;2.1;5;;;;;;;27.2;60.2;99230;;;;
2022/07/18 18:13:17;;;;;;;2;5.4;;;;;;;25.3;66.8;99230;;;;
2022/07/18 18:23:17;;;;;;;2;5.4;;;;;;;23.9;69.9;99230;;;;
2022/07/18 18:33:17;;;;;;;2;5.4;;;;;;;22.5;77.5;99220;;;;
2022/07/18 18:44:17;;;;;;;6.6;12.3;;;;;;;21.4;88.5;99220;;;;
2022/07/18 18:54:17;;;;;;;6.6;12.3;;;;;;;20.4;98.6;99230;;;;
2022/07/18 19:05:17;;;;;;;6.6;12.3;;;;;;;19.6;100;99230;;;;
2022/07/18 19:15:17;;;;;;;3.5;6.8;;;;;;;19.1;100;99230;;;;
2022/07/18 19:26:17;;;;;;;3.5;6.8;;;;;;;18.7;100;99240;;;;
2022/07/18 19:37:17;;;;;;;5.7;9.4;;;;;;;18.2;100;99250;;;;
2022/07/18 19:47:17;;;;;;;5.7;9.4;;;;;;;17.9;100;99240;;;;
2022/07/18 19:58:17;;;;;;;5.7;9.4;;;;;;;17.7;100;99240;;;;
2022/07/18 20:09:17;;;;;;;6.7;11.5;;;;;;;17.4;100;99240;;;;
2022/07/18 20:19:17;;;;;;;6.7;11.5;;;;;;;17.1;100;99230;;;;
2022/07/18 20:29:17;;;;;;;6.7;11.5;;;;;;;16.9;100;99220;;;;
2022/07/18 20:39:17;;;;;;;5.7;8.8;;;;;;;16.8;100;99220;;;;
2022/07/18 20:50:17;;;;;;;5.7;8.8;;;;;;;16.5;100;99220;;;;
2022/07/18 21:00:17;;;;;;;5.7;8.8;;;;;;;16.4;100;99230;;;;
2022/07/18 21:11:17;;;;;;;4.2;8;;;;;;;16.1;100;99220;;;;
2022/07/18 21:21:17;;;;;;;4.2;8;;;;;;;15.8;100;99220;;;;
2022/07/18 21:31:17;;;;;;;4.2;8;;;;;;;15.6;100;99220;;;;
2022/07/18 21:41:17;;;;;;;5.7;11.1;;;;;;;15.4;100;99210;;;;
2022/07/18 21:52:17;;;;;;;5.7;11.1;;;;;;;15.2;100;99210;;;;
2022/07/18 22:02:17;;;;;;;5.7;11.1;;;;;;;15;100;99200;;;;
2022/07/18 22:12:17;;;;;;;6.6;10.4;;;;;;;14.9;100;99200;;;;
2022/07/18 22:23:17;;;;;;;6.6;10.4;;;;;;;14.7;100;99200;;;;
2022/07/18 22:33:18;;;;;;;6.6;10.4;;;;;;;14.6;100;99200;;;;
2022/07/18 22:43:17;;;;;;;7.5;12.4;;;;;;;14.3;100;99200;;;;
2022/07/18 22:54:17;;;;;;;7.5;12.4;;;;;;;14.3;100;99190;;;;
2022/07/18 23:04:17;;;;;;;7.5;12.4;;;;;;;14.1;100;99190;;;;
2022/07/18 23:14:17;;;;;;;7.2;11.8;;;;;;;13.9;100;99180;;;;
2022/07/18 23:24:17;;;;;;;7.2;11.8;;;;;;;13.8;100;99190;;;;
2022/07/18 23:34:17;;;;;;;7.2;11.8;;;;;;;13.7;100;99190;;;;
2022/07/18 23:45:17;;;;;;;7.1;12.5;;;;;;;13.5;100;99180;;;;
2022/07/18 23:56:17;;;;;;;7.1;12.5;;;;;;;13.4;100;99190;;;;
